createdAt,value
2023-04-02T00:01:39.010Z,9.70
2023-04-02T00:04:14.201Z,9.70
2023-04-02T00:06:47.243Z,9.80
2023-04-02T00:09:13.882Z,9.80
2023-04-02T00:11:49.567Z,9.80
2023-04-02T00:14:29.785Z,9.80
2023-04-02T00:16:58.588Z,9.80
2023-04-02T00:19:41.321Z,9.80
2023-04-02T00:22:13.864Z,8.10
2023-04-02T00:24:40.689Z,9.80
2023-04-02T00:27:12.043Z,9.70
2023-04-02T00:29:47.224Z,9.80
2023-04-02T00:32:27.349Z,9.70
2023-04-02T00:37:27.613Z,9.80
2023-04-02T00:40:02.179Z,9.80
2023-04-02T00:42:31.620Z,9.80
2023-04-02T00:44:59.446Z,9.70
2023-04-02T00:47:32.587Z,9.80
2023-04-02T00:50:19.266Z,9.80
2023-04-02T00:52:50.685Z,9.80
2023-04-02T00:55:23.306Z,9.90
2023-04-02T00:57:51.398Z,9.90
2023-04-02T01:00:24.569Z,9.90
2023-04-02T01:03:19.373Z,9.80
2023-04-02T01:06:02.863Z,9.70
2023-04-02T01:08:44.230Z,9.50
2023-04-02T01:11:25.978Z,9.40
2023-04-02T01:14:22.080Z,9.20
2023-04-02T01:17:15.523Z,9.10
2023-04-02T01:20:09.920Z,9.00
2023-04-02T01:23:14.409Z,8.90
2023-04-02T01:26:11.194Z,8.90
2023-04-02T01:29:03.858Z,8.80
2023-04-02T01:31:33.115Z,8.70
2023-04-02T01:34:02.110Z,8.80
2023-04-02T01:36:49.915Z,8.80
2023-04-02T01:39:25.564Z,8.80
2023-04-02T01:42:21.334Z,8.70
2023-04-02T01:44:54.047Z,8.70
2023-04-02T01:47:27.263Z,8.70
2023-04-02T01:50:20.971Z,8.70
2023-04-02T01:52:51.359Z,8.70
2023-04-02T01:55:29.095Z,8.80
2023-04-02T01:57:56.682Z,8.60
2023-04-02T02:00:24.190Z,8.60
2023-04-02T02:02:52.040Z,8.60
2023-04-02T02:05:22.907Z,8.60
2023-04-02T02:07:51.086Z,8.60
2023-04-02T02:10:24.090Z,8.60
2023-04-02T02:15:21.941Z,8.60
2023-04-02T02:17:49.155Z,8.40
2023-04-02T02:20:17.304Z,8.50
2023-04-02T02:22:47.387Z,8.50
2023-04-02T02:25:21.140Z,8.50
2023-04-02T02:27:50.765Z,8.50
2023-04-02T02:30:24.257Z,8.50
2023-04-02T02:33:22.226Z,8.40
2023-04-02T02:35:52.949Z,8.40
2023-04-02T02:38:34.802Z,8.40
2023-04-02T02:41:07.684Z,8.40
2023-04-02T02:43:37.377Z,8.40
2023-04-02T02:46:05.285Z,8.30
2023-04-02T02:48:39.004Z,8.40
2023-04-02T02:51:15.689Z,8.30
2023-04-02T02:53:55.672Z,8.30
2023-04-02T02:56:23.668Z,8.30
2023-04-02T02:58:52.844Z,8.10
2023-04-02T03:01:19.679Z,8.10
2023-04-02T03:03:47.880Z,8.20
2023-04-02T03:06:17.056Z,8.10
2023-04-02T03:09:01.178Z,8.20
2023-04-02T03:11:57.622Z,8.10
2023-04-02T03:16:58.527Z,8.10
2023-04-02T03:19:45.539Z,8.00
2023-04-02T03:22:16.378Z,7.90
2023-04-02T03:25:01.643Z,7.90
2023-04-02T03:27:33.652Z,7.90
2023-04-02T03:30:18.966Z,7.90
2023-04-02T03:32:48.571Z,7.90
2023-04-02T03:35:48.334Z,7.90
2023-04-02T03:38:43.618Z,7.80
2023-04-02T03:43:42.537Z,7.90
2023-04-02T03:46:22.432Z,7.90
2023-04-02T03:48:54.773Z,7.90
2023-04-02T03:51:29.776Z,7.80
2023-04-02T03:53:56.821Z,7.70
2023-04-02T03:56:28.929Z,7.70
2023-04-02T03:59:07.820Z,7.70
2023-04-02T04:01:53.351Z,7.70
2023-04-02T04:06:52.325Z,7.60
2023-04-02T04:09:41.416Z,7.60
2023-04-02T04:12:26.350Z,7.60
2023-04-02T04:15:00.317Z,7.60
2023-04-02T04:17:51.724Z,7.40
2023-04-02T04:20:25.143Z,7.30
2023-04-02T04:22:55.965Z,7.20
2023-04-02T04:25:30.328Z,7.30
2023-04-02T04:28:38.309Z,7.20
2023-04-02T04:33:43.739Z,7.10
2023-04-02T04:36:28.434Z,7.10
2023-04-02T04:38:59.368Z,7.10
2023-04-02T04:41:32.177Z,7.10
2023-04-02T04:46:46.595Z,7.10
2023-04-02T04:49:47.658Z,7.10
2023-04-02T04:52:29.290Z,7.00
2023-04-02T04:57:34.474Z,7.00
2023-04-02T05:00:15.753Z,6.90
2023-04-02T05:03:03.279Z,6.90
2023-04-02T05:05:33.810Z,7.00
2023-04-02T05:08:17.016Z,6.80
2023-04-02T05:10:57.959Z,6.90
2023-04-02T05:13:44.705Z,6.90
2023-04-02T05:16:22.846Z,6.90
2023-04-02T05:19:06.354Z,6.90
2023-04-02T05:21:59.850Z,7.00
2023-04-02T05:24:38.689Z,6.90
2023-04-02T05:27:37.869Z,6.90
2023-04-02T05:30:24.795Z,6.90
2023-04-02T05:33:07.852Z,6.90
2023-04-02T05:35:38.048Z,6.90
2023-04-02T05:38:06.517Z,6.80
2023-04-02T05:40:39.685Z,6.80
2023-04-02T05:43:10.698Z,6.80
2023-04-02T05:45:41.186Z,6.80
2023-04-02T05:48:25.319Z,6.90
2023-04-02T05:50:54.870Z,6.90
2023-04-02T05:53:24.496Z,6.90
2023-04-02T05:56:15.938Z,6.80
2023-04-02T05:58:49.302Z,6.80
2023-04-02T06:01:30.782Z,6.70
2023-04-02T06:04:02.160Z,6.70
2023-04-02T06:06:43.910Z,6.70
2023-04-02T06:09:17.934Z,6.80
2023-04-02T06:11:50.265Z,6.70
2023-04-02T06:16:47.940Z,6.80
2023-04-02T06:19:25.995Z,6.80
2023-04-02T06:21:58.160Z,6.70
2023-04-02T06:24:27.654Z,6.80
2023-04-02T06:27:02.234Z,6.80
2023-04-02T06:29:39.555Z,6.80
2023-04-02T06:32:11.514Z,6.80
2023-04-02T06:34:42.521Z,6.80
2023-04-02T06:37:45.226Z,6.80
2023-04-02T06:40:43.985Z,6.70
2023-04-02T06:43:26.340Z,6.70
2023-04-02T06:45:56.470Z,6.70
2023-04-02T06:48:25.310Z,6.70
2023-04-02T06:51:12.736Z,6.70
2023-04-02T06:53:44.120Z,6.70
2023-04-02T06:58:38.087Z,6.70
2023-04-02T07:01:04.935Z,6.50
2023-04-02T07:03:32.617Z,6.60
2023-04-02T07:06:02.126Z,6.70
2023-04-02T07:10:56.724Z,6.50
2023-04-02T07:13:24.334Z,6.40
2023-04-02T07:15:52.947Z,6.50
2023-04-02T07:18:33.952Z,6.50
2023-04-02T07:21:00.762Z,6.60
2023-04-02T07:23:27.637Z,6.50
2023-04-02T07:25:56.623Z,6.50
2023-04-02T07:28:23.343Z,6.50
2023-04-02T07:30:51.188Z,6.50
2023-04-02T07:33:21.018Z,6.50
2023-04-02T07:35:48.073Z,6.50
2023-04-02T07:38:14.857Z,6.50
2023-04-02T07:40:41.897Z,6.50
2023-04-02T07:43:09.016Z,6.50
2023-04-02T07:48:11.725Z,6.50
2023-04-02T07:50:38.667Z,6.60
2023-04-02T07:53:07.002Z,6.50
2023-04-02T07:55:34.113Z,6.50
2023-04-02T07:58:01.022Z,6.60
2023-04-02T08:00:29.001Z,6.70
2023-04-02T08:05:23.439Z,6.80
2023-04-02T08:07:55.535Z,6.70
2023-04-02T08:10:22.943Z,6.80
2023-04-02T08:12:50.112Z,6.70
2023-04-02T08:15:17.608Z,6.80
2023-04-02T08:17:44.586Z,7.00
2023-04-02T08:20:18.013Z,6.90
2023-04-02T08:22:45.776Z,6.80
2023-04-02T08:25:12.795Z,6.80
2023-04-02T08:27:39.493Z,6.80
2023-04-02T08:30:07.860Z,6.80
2023-04-02T08:32:34.648Z,6.90
2023-04-02T08:35:01.549Z,7.00
2023-04-02T08:37:28.291Z,6.90
2023-04-02T08:39:55.004Z,6.80
2023-04-02T08:42:21.669Z,6.90
2023-04-02T08:44:51.367Z,6.90
2023-04-02T08:47:20.394Z,7.00
2023-04-02T08:50:01.686Z,7.10
2023-04-02T08:52:35.896Z,7.10
2023-04-02T08:55:04.905Z,7.20
2023-04-02T08:57:41.738Z,7.20
2023-04-02T09:00:36.809Z,7.30
2023-04-02T09:03:32.075Z,7.30
2023-04-02T09:06:01.227Z,7.30
2023-04-02T09:08:30.939Z,7.40
2023-04-02T09:11:04.342Z,7.30
2023-04-02T09:13:32.854Z,7.30
2023-04-02T09:16:12.091Z,7.20
2023-04-02T09:18:39.495Z,7.30
2023-04-02T09:21:21.817Z,7.40
2023-04-02T09:23:49.738Z,7.50
2023-04-02T09:26:31.170Z,7.70
2023-04-02T09:29:39.827Z,7.20
2023-04-02T09:32:31.302Z,7.30
2023-04-02T09:35:26.172Z,7.50
2023-04-02T09:38:21.848Z,7.60
2023-04-02T09:40:51.428Z,7.60
2023-04-02T09:43:21.495Z,7.60
2023-04-02T09:46:12.591Z,7.50
2023-04-02T09:48:49.655Z,7.50
2023-04-02T09:51:21.359Z,7.50
2023-04-02T09:53:51.123Z,7.50
2023-04-02T09:56:25.577Z,7.50
2023-04-02T09:59:13.713Z,7.40
2023-04-02T10:01:43.986Z,7.40
2023-04-02T10:04:54.394Z,7.50
2023-04-02T10:07:35.480Z,7.50
2023-04-02T10:10:16.424Z,7.40
2023-04-02T10:12:47.468Z,7.60
2023-04-02T10:15:22.931Z,10.60
2023-04-02T10:18:00.739Z,7.60
2023-04-02T10:20:32.129Z,7.80
2023-04-02T10:23:00.790Z,8.00
2023-04-02T10:25:34.588Z,7.90
2023-04-02T10:28:11.683Z,8.20
2023-04-02T10:30:47.538Z,8.10
2023-04-02T10:33:29.939Z,8.00
2023-04-02T10:36:02.741Z,8.00
2023-04-02T10:38:56.094Z,8.10
2023-04-02T10:41:28.899Z,8.10
2023-04-02T10:44:20.628Z,8.30
2023-04-02T10:47:11.878Z,8.20
2023-04-02T10:50:03.454Z,8.40
2023-04-02T10:52:45.473Z,8.60
2023-04-02T10:55:23.789Z,8.50
2023-04-02T10:57:54.268Z,8.70
2023-04-02T11:00:34.714Z,8.50
2023-04-02T11:03:16.541Z,8.40
2023-04-02T11:05:56.967Z,8.50
2023-04-02T11:08:29.282Z,8.60
2023-04-02T11:10:59.063Z,8.20
2023-04-02T11:13:40.424Z,8.20
2023-04-02T11:16:07.288Z,8.20
2023-04-02T11:18:38.790Z,8.30
2023-04-02T11:21:25.780Z,8.40
2023-04-02T11:23:59.700Z,8.40
2023-04-02T11:26:42.507Z,8.60
2023-04-02T11:29:29.476Z,8.90
2023-04-02T11:32:21.132Z,9.00
2023-04-02T11:34:59.851Z,9.20
2023-04-02T11:37:42.597Z,9.30
2023-04-02T11:40:12.812Z,9.10
2023-04-02T11:42:49.960Z,9.00
2023-04-02T11:45:22.589Z,8.60
2023-04-02T11:48:01.489Z,8.80
2023-04-02T11:50:36.129Z,8.80
2023-04-02T11:53:04.292Z,8.80
2023-04-02T11:55:33.470Z,9.00
2023-04-02T11:58:12.291Z,8.90
2023-04-02T12:01:05.221Z,9.10
2023-04-02T12:04:09.754Z,9.10
2023-04-02T12:07:13.064Z,9.20
2023-04-02T12:09:50.899Z,9.60
2023-04-02T12:12:38.100Z,9.60
2023-04-02T12:15:37.827Z,9.20
2023-04-02T12:18:23.140Z,9.20
2023-04-02T12:20:55.938Z,9.10
2023-04-02T12:23:35.559Z,9.10
2023-04-02T12:26:08.360Z,9.00
2023-04-02T12:28:37.991Z,8.90
2023-04-02T12:31:17.691Z,8.70
2023-04-02T12:33:45.058Z,9.20
2023-04-02T12:36:13.974Z,8.90
2023-04-02T12:38:48.285Z,9.00
2023-04-02T12:41:36.116Z,9.30
2023-04-02T12:44:14.078Z,9.20
2023-04-02T12:46:41.058Z,9.00
2023-04-02T12:49:37.019Z,8.70
2023-04-02T12:52:11.532Z,8.40
2023-04-02T12:54:59.695Z,8.70
2023-04-02T12:57:26.414Z,8.80
2023-04-02T12:59:57.639Z,8.90
2023-04-02T13:02:25.724Z,9.10
2023-04-02T13:04:55.148Z,9.10
2023-04-02T13:07:27.690Z,9.40
2023-04-02T13:10:00.491Z,9.20
2023-04-02T13:12:32.227Z,9.20
2023-04-02T13:15:01.107Z,9.20
2023-04-02T13:17:37.005Z,9.60
2023-04-02T13:20:28.597Z,9.40
2023-04-02T13:22:55.954Z,9.00
2023-04-02T13:25:29.452Z,9.10
2023-04-02T13:27:56.297Z,8.90
2023-04-02T13:30:26.164Z,9.00
2023-04-02T13:32:53.121Z,9.10
2023-04-02T13:35:21.006Z,9.20
2023-04-02T13:37:48.827Z,9.00
2023-04-02T13:40:19.185Z,8.80
2023-04-02T13:42:47.640Z,8.80
2023-04-02T13:45:36.422Z,8.90
2023-04-02T13:48:04.090Z,8.90
2023-04-02T13:50:33.637Z,8.90
2023-04-02T13:53:09.670Z,8.90
2023-04-02T13:55:41.495Z,9.00
2023-04-02T13:58:08.461Z,9.00
2023-04-02T14:00:37.840Z,8.80
2023-04-02T14:03:12.992Z,8.90
2023-04-02T14:05:47.071Z,9.00
2023-04-02T14:08:38.880Z,8.90
2023-04-02T14:11:39.328Z,8.90
2023-04-02T14:14:31.156Z,9.00
2023-04-02T14:17:27.530Z,8.80
2023-04-02T14:20:22.060Z,8.60
2023-04-02T14:23:25.898Z,8.60
2023-04-02T14:26:11.435Z,8.80
2023-04-02T14:29:02.982Z,8.80
2023-04-02T14:31:47.314Z,8.80
2023-04-02T14:34:41.389Z,8.80
2023-04-02T14:37:23.109Z,8.70
2023-04-02T14:40:08.795Z,8.70
2023-04-02T14:42:50.867Z,8.60
2023-04-02T14:45:42.517Z,8.60
2023-04-02T14:48:47.784Z,8.50
2023-04-02T14:51:17.369Z,8.40
2023-04-02T14:54:14.259Z,8.30
2023-04-02T14:56:50.658Z,5.00
2023-04-02T14:59:44.795Z,8.10
2023-04-02T15:02:38.022Z,8.10
2023-04-02T15:05:40.365Z,8.10
2023-04-02T15:08:19.113Z,8.30
2023-04-02T15:11:06.541Z,7.90
2023-04-02T15:13:38.657Z,7.90
2023-04-02T15:16:20.622Z,7.80
2023-04-02T15:18:51.972Z,8.00
2023-04-02T15:21:29.224Z,8.00
2023-04-02T15:24:01.595Z,8.00
2023-04-02T15:26:40.155Z,7.80
2023-04-02T15:29:28.320Z,7.80
2023-04-02T15:32:04.769Z,7.80
2023-04-02T15:34:50.615Z,7.90
2023-04-02T15:37:43.920Z,8.00
2023-04-02T15:40:29.486Z,8.10
2023-04-02T15:43:23.133Z,8.00
2023-04-02T15:46:14.855Z,8.10
2023-04-02T15:49:06.594Z,7.90
2023-04-02T15:51:39.965Z,7.90
2023-04-02T15:54:26.952Z,7.80
2023-04-02T15:57:12.309Z,8.10
2023-04-02T16:00:16.395Z,8.10
2023-04-02T16:03:07.509Z,7.90
2023-04-02T16:05:40.055Z,7.70
2023-04-02T16:08:30.952Z,7.90
2023-04-02T16:10:57.662Z,7.70
2023-04-02T16:13:35.903Z,7.60
2023-04-02T16:16:24.635Z,7.50
2023-04-02T16:19:16.032Z,7.50
2023-04-02T16:22:01.910Z,7.40
2023-04-02T16:24:28.712Z,7.40
2023-04-02T16:27:20.589Z,7.40
2023-04-02T16:30:06.030Z,7.40
2023-04-02T16:33:07.792Z,7.20
2023-04-02T16:35:46.836Z,7.20
2023-04-02T16:38:28.660Z,7.20
2023-04-02T16:41:08.438Z,7.30
2023-04-02T16:44:13.153Z,7.30
2023-04-02T16:47:01.121Z,7.40
2023-04-02T16:50:01.922Z,7.40
2023-04-02T16:52:51.733Z,7.50
2023-04-02T16:55:33.294Z,7.40
2023-04-02T16:58:02.982Z,7.50
2023-04-02T17:00:37.105Z,7.40
2023-04-02T17:03:39.089Z,7.50
2023-04-02T17:06:06.260Z,7.40
2023-04-02T17:08:41.749Z,7.30
2023-04-02T17:11:41.771Z,7.30
2023-04-02T17:14:20.250Z,7.30
2023-04-02T17:16:50.922Z,7.10
2023-04-02T17:19:19.282Z,7.10
2023-04-02T17:21:49.220Z,7.10
2023-04-02T17:24:23.164Z,7.00
2023-04-02T17:26:59.216Z,7.00
2023-04-02T17:29:38.364Z,7.00
2023-04-02T17:32:12.370Z,7.20
2023-04-02T17:34:39.114Z,7.10
2023-04-02T17:37:53.799Z,7.20
2023-04-02T17:40:31.766Z,7.30
2023-04-02T17:48:07.891Z,7.20
2023-04-02T17:50:47.587Z,7.20
2023-04-02T17:53:24.929Z,7.20
2023-04-02T17:56:03.494Z,7.20
2023-04-02T17:58:54.912Z,7.20
2023-04-02T18:01:24.406Z,7.20
2023-04-02T18:03:59.719Z,7.20
2023-04-02T18:06:39.416Z,7.10
2023-04-02T18:09:25.551Z,7.10
2023-04-02T18:12:07.244Z,7.20
2023-04-02T18:15:08.285Z,7.20
2023-04-02T18:17:50.341Z,7.20
2023-04-02T18:20:53.546Z,7.20
2023-04-02T18:23:38.312Z,7.20
2023-04-02T18:26:56.567Z,7.20
2023-04-02T18:29:41.037Z,7.10
2023-04-02T18:32:50.913Z,7.20
2023-04-02T18:35:34.307Z,7.20
2023-04-02T18:38:11.309Z,7.10
2023-04-02T18:41:04.311Z,7.10
2023-04-02T18:43:49.705Z,7.20
2023-04-02T18:46:36.286Z,7.10
2023-04-02T18:49:24.644Z,7.10
2023-04-02T18:52:00.438Z,7.00
2023-04-02T18:54:39.123Z,7.10
2023-04-02T18:57:15.863Z,7.10
2023-04-02T18:59:54.458Z,7.00
2023-04-02T19:04:58.076Z,7.00
2023-04-02T19:07:29.254Z,6.80
2023-04-02T19:10:01.711Z,6.90
2023-04-02T19:12:32.230Z,6.90
2023-04-02T19:18:07.486Z,6.90
2023-04-02T19:20:50.378Z,7.00
2023-04-02T19:23:38.931Z,7.00
2023-04-02T19:26:09.114Z,6.90
2023-04-02T19:28:57.229Z,6.90
2023-04-02T19:31:44.141Z,6.80
2023-04-02T19:34:36.313Z,6.90
2023-04-02T19:37:13.976Z,6.80
2023-04-02T19:40:06.439Z,6.70
2023-04-02T19:42:51.384Z,6.70
2023-04-02T19:45:43.143Z,6.50
2023-04-02T19:48:26.662Z,6.40
2023-04-02T19:58:30.377Z,6.20
2023-04-02T20:00:57.461Z,6.10
2023-04-02T20:03:24.261Z,6.00
2023-04-02T20:05:51.246Z,6.10
2023-04-02T20:10:45.732Z,6.10
2023-04-02T20:15:40.302Z,6.20
2023-04-02T20:23:01.810Z,6.20
2023-04-02T20:32:50.352Z,5.70
2023-04-02T20:37:44.353Z,5.70
2023-04-02T20:40:11.143Z,5.60
2023-04-02T20:42:37.884Z,5.70
2023-04-02T20:47:33.170Z,5.60
2023-04-02T20:52:30.049Z,5.50
2023-04-02T21:04:48.515Z,5.10
2023-04-02T21:07:15.479Z,5.00
2023-04-02T21:09:42.228Z,4.90
2023-04-02T21:14:38.919Z,4.80
2023-04-02T21:17:07.237Z,4.80
2023-04-02T21:19:34.949Z,4.70
2023-04-02T21:22:02.008Z,4.60
2023-04-02T21:29:22.900Z,4.50
2023-04-02T21:34:17.241Z,4.40
2023-04-02T21:36:46.086Z,4.30
2023-04-02T21:39:18.632Z,4.30
2023-04-02T21:41:49.935Z,4.20
2023-04-02T21:44:20.989Z,4.10
2023-04-02T21:46:48.963Z,4.10
2023-04-02T21:49:19.430Z,4.10
2023-04-02T21:51:46.850Z,4.00
2023-04-02T21:54:13.975Z,4.00
2023-04-02T21:56:42.700Z,4.40
2023-04-02T21:59:11.365Z,3.90
2023-04-02T22:01:44.045Z,3.80
2023-04-02T22:04:16.722Z,3.90
2023-04-02T22:06:44.473Z,3.90
2023-04-02T22:09:17.240Z,3.90
2023-04-02T22:11:47.186Z,3.90
2023-04-02T22:16:41.905Z,3.80
2023-04-02T22:19:11.810Z,3.80
2023-04-02T22:21:39.250Z,3.80
2023-04-02T22:24:09.039Z,3.70
2023-04-02T22:26:36.651Z,3.80
2023-04-02T22:29:04.629Z,3.80
2023-04-02T22:31:34.922Z,3.80
2023-04-02T22:34:03.368Z,3.90
2023-04-02T22:36:30.830Z,4.00
2023-04-02T22:38:58.594Z,3.90
2023-04-02T22:41:29.646Z,4.00
2023-04-02T22:43:57.470Z,4.10
2023-04-02T22:46:26.557Z,4.00
2023-04-02T22:48:54.058Z,4.10
2023-04-02T22:51:22.255Z,4.10
2023-04-02T22:53:50.285Z,4.10
2023-04-02T22:56:20.005Z,4.10
2023-04-02T23:01:27.513Z,4.10
2023-04-02T23:03:55.396Z,4.00
2023-04-02T23:06:22.659Z,3.90
2023-04-02T23:11:19.598Z,3.90
2023-04-02T23:13:48.585Z,3.90
2023-04-02T23:18:43.845Z,3.70
2023-04-02T23:21:11.031Z,3.80
2023-04-02T23:23:37.746Z,3.80
2023-04-02T23:28:31.887Z,3.70
2023-04-02T23:31:06.902Z,3.80
2023-04-02T23:33:34.197Z,3.80
2023-04-02T23:36:05.940Z,3.80
2023-04-02T23:43:27.486Z,3.90
2023-04-02T23:45:54.232Z,3.90
2023-04-02T23:50:48.031Z,3.80
